createdAt,value
2018-05-04T00:00:16.679Z,24.43
2018-05-04T00:02:43.007Z,24.41
2018-05-04T00:05:09.360Z,24.39
2018-05-04T00:07:35.692Z,24.40
2018-05-04T00:10:02.142Z,24.43
2018-05-04T00:12:28.476Z,24.41
2018-05-04T00:14:54.793Z,24.36
2018-05-04T00:17:21.116Z,24.39
2018-05-04T00:19:47.472Z,24.41
2018-05-04T00:22:13.800Z,24.36
2018-05-04T00:24:40.122Z,24.41
2018-05-04T00:27:06.476Z,24.33
2018-05-04T00:29:32.862Z,24.36
2018-05-04T00:31:59.357Z,24.33
2018-05-04T00:34:25.741Z,24.34
2018-05-04T00:36:52.122Z,24.38
2018-05-04T00:39:18.864Z,24.35
2018-05-04T00:41:45.219Z,24.34
2018-05-04T00:44:11.606Z,24.33
2018-05-04T00:46:37.920Z,24.32
2018-05-04T00:49:04.242Z,24.30
2018-05-04T00:51:30.561Z,24.38
2018-05-04T00:53:56.904Z,24.25
2018-05-04T00:56:23.232Z,24.35
2018-05-04T00:58:49.583Z,24.30
2018-05-04T01:01:16.073Z,24.29
2018-05-04T01:03:42.398Z,24.28
2018-05-04T01:06:08.726Z,24.24
2018-05-04T01:08:35.063Z,24.21
2018-05-04T01:11:01.385Z,24.14
2018-05-04T01:13:27.743Z,24.08
2018-05-04T01:15:54.059Z,23.99
2018-05-04T01:18:20.424Z,23.94
2018-05-04T01:20:46.781Z,23.94
2018-05-04T01:23:13.109Z,23.89
2018-05-04T01:25:39.438Z,23.82
2018-05-04T01:28:05.777Z,23.83
2018-05-04T01:30:32.105Z,23.81
2018-05-04T01:32:58.437Z,23.82
2018-05-04T01:35:24.765Z,23.73
2018-05-04T01:37:51.101Z,23.76
2018-05-04T01:40:17.469Z,23.66
2018-05-04T01:42:43.791Z,23.66
2018-05-04T01:45:10.109Z,23.62
2018-05-04T01:47:36.441Z,23.59
2018-05-04T01:50:02.806Z,23.55
2018-05-04T01:52:29.149Z,23.54
2018-05-04T01:54:55.485Z,23.43
2018-05-04T01:57:21.893Z,23.45
2018-05-04T01:59:48.398Z,23.54
2018-05-04T02:02:14.736Z,23.48
2018-05-04T02:04:41.107Z,23.48
2018-05-04T02:07:07.940Z,23.45
2018-05-04T02:09:34.329Z,23.43
2018-05-04T02:12:00.723Z,23.46
2018-05-04T02:14:27.229Z,23.42
2018-05-04T02:16:53.747Z,23.40
2018-05-04T02:19:20.212Z,23.43
2018-05-04T02:21:46.753Z,23.41
2018-05-04T02:24:13.134Z,23.41
2018-05-04T02:26:39.553Z,23.37
2018-05-04T02:29:05.943Z,23.35
2018-05-04T02:31:32.450Z,23.34
2018-05-04T02:33:59.023Z,23.42
2018-05-04T02:36:25.373Z,23.36
2018-05-04T02:38:51.719Z,23.27
2018-05-04T02:41:18.390Z,23.35
2018-05-04T02:43:44.764Z,23.34
2018-05-04T02:46:11.192Z,23.31
2018-05-04T02:48:37.653Z,23.34
2018-05-04T02:51:04.068Z,23.38
2018-05-04T02:53:30.433Z,23.36
2018-05-04T02:55:56.832Z,23.34
2018-05-04T02:58:23.250Z,23.33
2018-05-04T03:00:49.629Z,23.30
2018-05-04T03:03:16.247Z,23.20
2018-05-04T03:05:42.644Z,23.27
2018-05-04T03:08:09.076Z,23.25
2018-05-04T03:10:35.463Z,23.22
2018-05-04T03:13:01.835Z,23.29
2018-05-04T03:15:28.200Z,23.26
2018-05-04T03:17:54.512Z,23.26
2018-05-04T03:20:20.883Z,23.31
2018-05-04T03:22:47.290Z,23.36
2018-05-04T03:25:13.663Z,23.37
2018-05-04T03:27:39.992Z,23.43
2018-05-04T03:30:06.369Z,23.49
2018-05-04T03:32:32.788Z,23.43
2018-05-04T03:34:59.172Z,23.48
2018-05-04T03:37:25.587Z,23.55
2018-05-04T03:39:52.192Z,23.62
2018-05-04T03:42:18.939Z,23.45
2018-05-04T03:44:45.348Z,23.60
2018-05-04T03:47:11.692Z,23.63
2018-05-04T03:49:38.060Z,23.71
2018-05-04T03:52:04.628Z,23.61
2018-05-04T03:54:30.994Z,23.65
2018-05-04T03:56:57.332Z,23.63
2018-05-04T03:59:24.079Z,23.62
2018-05-04T04:01:50.436Z,23.65
2018-05-04T04:04:16.804Z,23.74
2018-05-04T04:06:43.212Z,23.64
2018-05-04T04:09:09.575Z,23.69
2018-05-04T04:11:35.948Z,23.67
2018-05-04T04:14:02.457Z,23.70
2018-05-04T04:16:29.880Z,23.68
2018-05-04T04:18:56.311Z,23.73
2018-05-04T04:21:22.660Z,23.71
2018-05-04T04:23:49.444Z,23.71
2018-05-04T04:26:15.994Z,23.75
2018-05-04T04:28:43.006Z,23.68
2018-05-04T04:31:09.609Z,23.76
2018-05-04T04:33:35.991Z,23.84
2018-05-04T04:36:02.579Z,23.70
2018-05-04T04:38:29.260Z,23.81
2018-05-04T04:40:56.298Z,23.76
2018-05-04T04:43:23.022Z,23.62
2018-05-04T04:45:50.324Z,23.79
2018-05-04T04:48:16.796Z,23.78
2018-05-04T04:50:44.306Z,23.86
2018-05-04T04:53:10.797Z,23.78
2018-05-04T04:55:37.576Z,23.90
2018-05-04T04:58:04.005Z,23.88
2018-05-04T05:00:30.407Z,23.81
2018-05-04T05:02:56.893Z,23.91
2018-05-04T05:05:23.376Z,23.91
2018-05-04T05:07:50.570Z,23.88
2018-05-04T05:10:17.117Z,23.92
2018-05-04T05:12:43.621Z,23.90
2018-05-04T05:15:10.341Z,23.99
2018-05-04T05:17:36.778Z,24.03
2018-05-04T05:20:03.726Z,23.98
2018-05-04T05:22:31.729Z,24.05
2018-05-04T05:24:58.331Z,24.05
2018-05-04T05:27:25.263Z,24.04
2018-05-04T05:29:53.693Z,24.10
2018-05-04T05:32:20.176Z,24.04
2018-05-04T05:34:46.975Z,24.18
2018-05-04T05:39:46.913Z,24.21
2018-05-04T05:42:13.445Z,24.26
2018-05-04T05:44:42.547Z,24.16
2018-05-04T05:47:09.843Z,24.17
2018-05-04T05:49:36.490Z,24.25
2018-05-04T05:52:03.389Z,24.19
2018-05-04T05:54:32.585Z,24.32
2018-05-04T05:56:59.276Z,24.30
2018-05-04T05:59:25.899Z,24.21
2018-05-04T06:01:52.569Z,24.38
2018-05-04T06:04:19.188Z,24.41
2018-05-04T06:06:46.051Z,24.32
2018-05-04T06:09:12.938Z,24.42
2018-05-04T06:11:39.517Z,24.39
2018-05-04T06:14:06.276Z,24.45
2018-05-04T06:16:33.448Z,24.44
2018-05-04T06:19:00.092Z,24.35
2018-05-04T06:21:34.319Z,24.51
2018-05-04T06:24:06.306Z,24.53
2018-05-04T06:31:57.651Z,24.56
2018-05-04T06:34:24.023Z,24.58
2018-05-04T06:36:50.401Z,24.46
2018-05-04T06:39:16.850Z,24.53
2018-05-04T06:41:43.266Z,24.51
2018-05-04T06:44:09.786Z,24.58
2018-05-04T06:46:36.182Z,24.49
2018-05-04T06:49:02.754Z,24.58
2018-05-04T06:51:29.397Z,24.54
2018-05-04T06:53:55.814Z,24.60
2018-05-04T06:56:22.240Z,24.68
2018-05-04T06:58:48.895Z,24.71
2018-05-04T07:01:15.454Z,24.58
2018-05-04T07:03:41.892Z,24.59
2018-05-04T07:06:08.300Z,24.54
2018-05-04T07:08:34.767Z,24.70
2018-05-04T07:11:01.123Z,24.62
2018-05-04T07:13:27.523Z,24.72
2018-05-04T07:15:54.007Z,24.67
2018-05-04T07:18:20.368Z,24.51
2018-05-04T07:20:46.793Z,24.79
2018-05-04T07:23:13.500Z,24.64
2018-05-04T07:25:40.008Z,24.83
2018-05-04T07:28:06.474Z,24.89
2018-05-04T07:30:33.302Z,24.82
2018-05-04T07:33:00.210Z,24.80
2018-05-04T07:35:27.089Z,24.72
2018-05-04T07:37:53.566Z,24.77
2018-05-04T07:40:20.297Z,24.90
2018-05-04T07:42:46.959Z,24.89
2018-05-04T07:45:13.499Z,24.76
2018-05-04T07:47:39.895Z,24.85
2018-05-04T07:50:06.338Z,24.87
2018-05-04T07:52:34.081Z,24.78
2018-05-04T07:55:00.540Z,24.81
2018-05-04T07:57:27.949Z,25.01
2018-05-04T07:59:54.583Z,24.83
2018-05-04T08:02:21.077Z,24.85
2018-05-04T08:04:47.534Z,24.76
2018-05-04T08:07:13.986Z,24.91
2018-05-04T08:09:40.568Z,24.97
2018-05-04T08:12:07.420Z,25.04
2018-05-04T08:14:33.881Z,25.08
2018-05-04T08:17:00.298Z,25.01
2018-05-04T08:19:27.279Z,24.94
2018-05-04T08:21:54.992Z,25.13
2018-05-04T08:24:22.183Z,25.07
2018-05-04T08:26:48.705Z,25.04
2018-05-04T08:29:15.045Z,25.04
2018-05-04T08:31:41.406Z,25.12
2018-05-04T08:34:08.282Z,25.02
2018-05-04T08:36:34.882Z,25.12
2018-05-04T08:39:01.336Z,25.11
2018-05-04T08:41:28.205Z,25.03
2018-05-04T08:43:54.707Z,25.16
2018-05-04T08:46:21.118Z,25.17
2018-05-04T08:48:47.807Z,25.16
2018-05-04T08:51:14.519Z,25.28
2018-05-04T08:53:40.922Z,25.21
2018-05-04T08:56:07.281Z,25.29
2018-05-04T08:58:33.697Z,25.22
2018-05-04T09:01:00.160Z,25.17
2018-05-04T09:03:26.532Z,25.21
2018-05-04T09:05:53.139Z,25.12
2018-05-04T09:08:19.768Z,25.14
2018-05-04T09:10:51.311Z,25.15
2018-05-04T09:13:18.394Z,25.23
2018-05-04T09:15:44.905Z,25.18
2018-05-04T09:18:11.444Z,25.19
2018-05-04T09:20:37.881Z,25.15
2018-05-04T09:23:04.557Z,25.14
2018-05-04T09:25:31.105Z,25.18
2018-05-04T09:27:57.456Z,25.21
2018-05-04T09:30:23.826Z,25.19
2018-05-04T09:32:50.233Z,25.13
2018-05-04T09:35:16.707Z,25.24
2018-05-04T09:37:43.089Z,25.20
2018-05-04T09:40:09.415Z,25.17
2018-05-04T09:42:35.833Z,25.19
2018-05-04T09:45:02.494Z,25.25
2018-05-04T09:47:28.971Z,25.18
2018-05-04T09:49:55.596Z,25.08
2018-05-04T09:52:22.221Z,25.21
2018-05-04T09:54:48.859Z,25.31
2018-05-04T09:57:15.767Z,25.31
2018-05-04T09:59:42.270Z,25.20
2018-05-04T10:02:08.769Z,25.27
2018-05-04T10:04:35.742Z,25.32
2018-05-04T10:07:02.243Z,25.34
2018-05-04T10:09:28.621Z,25.23
2018-05-04T10:11:55.207Z,25.43
2018-05-04T10:14:21.855Z,25.39
2018-05-04T10:16:48.391Z,25.37
2018-05-04T10:19:14.925Z,25.33
2018-05-04T10:21:41.438Z,25.47
2018-05-04T10:24:07.989Z,25.45
2018-05-04T10:26:34.705Z,25.50
2018-05-04T10:29:01.169Z,25.45
2018-05-04T10:31:27.850Z,25.37
2018-05-04T10:33:54.439Z,25.49
2018-05-04T10:36:21.191Z,25.43
2018-05-04T10:38:47.948Z,25.44
2018-05-04T10:41:14.439Z,25.51
2018-05-04T10:43:40.992Z,25.49
2018-05-04T10:46:07.430Z,25.47
2018-05-04T10:48:34.169Z,25.43
2018-05-04T10:51:00.974Z,25.48
2018-05-04T10:53:28.889Z,25.42
2018-05-04T10:55:55.725Z,25.47
2018-05-04T10:58:22.553Z,25.53
2018-05-04T11:00:49.914Z,25.58
2018-05-04T11:03:16.656Z,25.52
2018-05-04T11:05:43.217Z,25.49
2018-05-04T11:08:09.829Z,25.47
2018-05-04T11:10:36.553Z,25.34
2018-05-04T11:13:03.009Z,25.25
2018-05-04T11:15:29.505Z,25.32
2018-05-04T11:17:56.293Z,25.44
2018-05-04T11:20:22.812Z,25.46
2018-05-04T11:22:49.756Z,25.34
2018-05-04T11:25:16.463Z,25.56
2018-05-04T11:27:43.039Z,25.48
2018-05-04T11:30:09.468Z,25.53
2018-05-04T11:32:36.002Z,25.53
2018-05-04T11:35:02.641Z,25.46
2018-05-04T11:37:29.171Z,25.38
2018-05-04T11:39:55.630Z,25.45
2018-05-04T11:42:22.515Z,25.36
2018-05-04T11:44:49.164Z,25.42
2018-05-04T11:47:15.777Z,25.35
2018-05-04T11:49:42.371Z,25.45
2018-05-04T11:52:09.202Z,25.47
2018-05-04T11:54:35.832Z,25.37
2018-05-04T11:57:02.580Z,25.49
2018-05-04T11:59:29.119Z,25.44
2018-05-04T12:01:55.753Z,25.41
2018-05-04T12:04:22.375Z,25.55
2018-05-04T12:06:48.896Z,25.53
2018-05-04T12:09:15.638Z,25.57
2018-05-04T12:11:42.202Z,25.50
2018-05-04T12:14:08.809Z,25.56
2018-05-04T12:16:35.393Z,25.43
2018-05-04T12:19:01.848Z,25.57
2018-05-04T12:21:28.445Z,25.49
2018-05-04T12:23:54.951Z,25.60
2018-05-04T12:26:21.475Z,25.67
2018-05-04T12:28:48.049Z,25.39
2018-05-04T12:31:14.682Z,25.71
2018-05-04T12:33:41.325Z,25.66
2018-05-04T12:36:07.841Z,25.57
2018-05-04T12:38:34.509Z,25.55
2018-05-04T12:41:01.267Z,25.62
2018-05-04T12:43:27.987Z,25.52
2018-05-04T12:45:54.511Z,25.65
2018-05-04T12:48:21.052Z,25.54
2018-05-04T12:50:47.700Z,25.56
2018-05-04T12:53:14.430Z,25.67
2018-05-04T12:55:41.166Z,25.59
2018-05-04T12:58:07.776Z,25.56
2018-05-04T13:00:35.472Z,25.56
2018-05-04T13:03:02.105Z,25.59
2018-05-04T13:05:29.354Z,25.61
2018-05-04T13:07:55.991Z,25.60
2018-05-04T13:10:22.602Z,25.71
2018-05-04T13:12:49.165Z,25.62
2018-05-04T13:15:15.602Z,25.59
2018-05-04T13:17:42.085Z,25.52
2018-05-04T13:20:08.636Z,25.59
2018-05-04T13:22:35.397Z,25.50
2018-05-04T13:25:01.985Z,25.54
2018-05-04T13:27:28.682Z,25.65
2018-05-04T13:29:55.731Z,25.58
2018-05-04T13:32:22.369Z,25.60
2018-05-04T13:34:49.007Z,25.52
2018-05-04T13:37:15.545Z,25.51
2018-05-04T13:39:42.067Z,25.52
2018-05-04T13:42:08.609Z,25.58
2018-05-04T13:44:35.246Z,25.41
2018-05-04T13:47:01.608Z,25.53
2018-05-04T13:49:28.174Z,25.46
2018-05-04T13:51:54.604Z,25.54
2018-05-04T13:54:21.009Z,25.58
2018-05-04T13:56:48.357Z,25.52
2018-05-04T13:59:14.692Z,25.51
2018-05-04T14:01:41.080Z,25.73
2018-05-04T14:04:07.424Z,25.52
2018-05-04T14:06:33.894Z,25.45
2018-05-04T14:09:00.215Z,25.49
2018-05-04T14:11:26.553Z,25.59
2018-05-04T14:13:52.921Z,25.53
2018-05-04T14:16:19.308Z,25.57
2018-05-04T14:18:45.739Z,25.49
2018-05-04T14:21:12.076Z,25.48
2018-05-04T14:23:38.476Z,25.55
2018-05-04T14:26:04.887Z,25.33
2018-05-04T14:28:31.353Z,25.48
2018-05-04T14:30:57.707Z,25.40
2018-05-04T14:33:24.162Z,25.43
2018-05-04T14:35:50.528Z,25.32
2018-05-04T14:38:16.896Z,25.34
2018-05-04T14:40:43.289Z,25.37
2018-05-04T14:43:09.686Z,25.32
2018-05-04T14:45:36.030Z,25.31
2018-05-04T14:48:02.374Z,25.33
2018-05-04T14:50:28.765Z,25.36
2018-05-04T14:52:55.090Z,25.34
2018-05-04T14:55:21.436Z,25.35
2018-05-04T14:57:47.806Z,25.40
2018-05-04T15:00:14.128Z,25.33
2018-05-04T15:02:40.480Z,25.26
2018-05-04T15:05:06.826Z,25.29
2018-05-04T15:07:33.192Z,25.33
2018-05-04T15:09:59.592Z,25.24
2018-05-04T15:12:25.920Z,25.22
2018-05-04T15:14:52.315Z,25.26
2018-05-04T15:17:18.753Z,25.24
2018-05-04T15:19:45.193Z,25.20
2018-05-04T15:22:11.565Z,25.17
2018-05-04T15:24:38.058Z,25.27
2018-05-04T15:27:04.597Z,25.05
2018-05-04T15:29:30.935Z,25.15
2018-05-04T15:31:57.274Z,25.14
2018-05-04T15:34:23.618Z,25.10
2018-05-04T15:36:49.940Z,25.09
2018-05-04T15:39:16.303Z,25.10
2018-05-04T15:41:42.652Z,25.16
2018-05-04T15:44:08.998Z,25.01
2018-05-04T15:46:35.325Z,25.03
2018-05-04T15:49:01.646Z,24.99
2018-05-04T15:51:27.984Z,25.00
2018-05-04T15:53:54.297Z,24.96
2018-05-04T15:56:20.684Z,24.97
2018-05-04T15:58:47.028Z,25.04
2018-05-04T16:01:13.426Z,24.90
2018-05-04T16:03:39.752Z,24.92
2018-05-04T16:06:06.145Z,24.99
2018-05-04T16:08:32.437Z,25.01
2018-05-04T16:10:58.751Z,24.91
2018-05-04T16:13:25.068Z,24.93
2018-05-04T16:15:51.390Z,24.96
2018-05-04T16:18:17.755Z,24.90
2018-05-04T16:20:44.078Z,24.87
2018-05-04T16:23:10.433Z,24.97
2018-05-04T16:25:36.752Z,24.89
2018-05-04T16:28:03.117Z,24.87
2018-05-04T16:30:29.441Z,24.96
2018-05-04T16:32:55.796Z,24.89
2018-05-04T16:35:22.111Z,24.84
2018-05-04T16:37:48.456Z,24.78
2018-05-04T16:40:14.859Z,24.80
2018-05-04T16:42:41.187Z,24.79
2018-05-04T16:45:07.504Z,24.78
2018-05-04T16:47:33.826Z,24.73
2018-05-04T16:50:00.169Z,24.76
2018-05-04T16:52:26.480Z,24.76
2018-05-04T16:54:52.807Z,24.78
2018-05-04T16:57:19.196Z,24.71
2018-05-04T16:59:45.509Z,24.68
2018-05-04T17:02:11.867Z,24.73
2018-05-04T17:04:38.176Z,24.72
2018-05-04T17:07:04.519Z,24.67
2018-05-04T17:09:30.833Z,24.73
2018-05-04T17:11:57.199Z,24.75
2018-05-04T17:14:23.519Z,24.73
2018-05-04T17:16:49.837Z,24.68
2018-05-04T17:19:16.162Z,24.78
2018-05-04T17:21:42.524Z,24.84
2018-05-04T17:24:08.848Z,24.83
2018-05-04T17:26:35.218Z,24.75
2018-05-04T17:29:01.550Z,24.82
2018-05-04T17:31:27.863Z,24.86
2018-05-04T17:33:54.184Z,24.91
2018-05-04T17:36:20.531Z,24.91
2018-05-04T17:38:46.940Z,24.80
2018-05-04T17:41:13.257Z,24.86
2018-05-04T17:43:39.577Z,24.88
2018-05-04T17:46:05.949Z,24.89
2018-05-04T17:48:32.270Z,24.88
2018-05-04T17:50:58.604Z,24.91
2018-05-04T17:53:24.930Z,24.91
2018-05-04T17:55:51.252Z,24.90
2018-05-04T17:58:17.619Z,24.94
2018-05-04T18:00:43.952Z,24.92
2018-05-04T18:03:10.334Z,24.92
2018-05-04T18:05:36.641Z,24.85
2018-05-04T18:08:02.977Z,24.91
2018-05-04T18:10:29.334Z,24.87
2018-05-04T18:12:55.657Z,24.88
2018-05-04T18:15:22.043Z,24.92
2018-05-04T18:17:48.417Z,24.90
2018-05-04T18:20:14.749Z,24.88
2018-05-04T18:22:41.105Z,24.92
2018-05-04T18:25:07.407Z,24.95
2018-05-04T18:27:33.761Z,24.89
2018-05-04T18:30:00.097Z,24.82
2018-05-04T18:32:26.407Z,24.90
2018-05-04T18:34:52.735Z,24.87
2018-05-04T18:37:19.119Z,24.93
2018-05-04T18:39:45.444Z,24.91
2018-05-04T18:42:11.765Z,24.90
2018-05-04T18:44:38.081Z,24.91
2018-05-04T18:47:04.441Z,24.92
2018-05-04T18:49:30.818Z,24.85
2018-05-04T18:51:57.143Z,24.92
2018-05-04T18:54:23.521Z,24.91
2018-05-04T18:56:49.848Z,24.88
2018-05-04T18:59:16.176Z,24.84
2018-05-04T19:01:42.498Z,24.90
2018-05-04T19:04:08.852Z,24.89
2018-05-04T19:06:35.214Z,24.86
2018-05-04T19:09:01.578Z,24.89
2018-05-04T19:11:27.906Z,24.92
2018-05-04T19:13:54.262Z,24.91
2018-05-04T19:16:20.591Z,24.87
2018-05-04T19:18:46.971Z,24.91
2018-05-04T19:21:13.345Z,24.77
2018-05-04T19:23:39.663Z,24.89
2018-05-04T19:26:06.018Z,24.87
2018-05-04T19:28:32.331Z,24.84
2018-05-04T19:30:58.706Z,24.87
2018-05-04T19:33:25.020Z,24.89
2018-05-04T19:35:51.333Z,24.89
2018-05-04T19:38:17.693Z,24.85
2018-05-04T19:40:44.004Z,24.89
2018-05-04T19:43:10.364Z,24.89
2018-05-04T19:45:36.700Z,24.83
2018-05-04T19:48:03.062Z,24.86
2018-05-04T19:50:29.425Z,24.90
2018-05-04T19:52:55.788Z,24.86
2018-05-04T19:55:22.108Z,24.89
2018-05-04T19:57:48.481Z,24.87
2018-05-04T20:00:14.800Z,24.88
2018-05-04T20:02:41.159Z,24.88
2018-05-04T20:05:07.473Z,24.88
2018-05-04T20:07:33.799Z,24.87
2018-05-04T20:10:00.157Z,24.85
2018-05-04T20:12:26.480Z,24.81
2018-05-04T20:14:52.832Z,24.84
2018-05-04T20:17:19.193Z,24.81
2018-05-04T20:19:45.540Z,24.82
2018-05-04T20:22:11.893Z,24.85
2018-05-04T20:24:38.246Z,24.84
2018-05-04T20:27:04.612Z,24.82
2018-05-04T20:29:30.944Z,24.81
2018-05-04T20:31:57.304Z,24.75
2018-05-04T20:34:23.631Z,24.82
2018-05-04T20:36:50.000Z,24.81
2018-05-04T20:39:16.332Z,24.79
2018-05-04T20:41:42.687Z,24.83
2018-05-04T20:44:09.123Z,24.83
2018-05-04T20:46:35.389Z,24.77
2018-05-04T20:49:01.722Z,24.71
2018-05-04T20:51:28.124Z,24.82
2018-05-04T20:53:54.441Z,24.83
2018-05-04T20:56:20.773Z,24.70
2018-05-04T20:58:47.137Z,24.70
2018-05-04T21:01:13.501Z,24.69
2018-05-04T21:03:39.804Z,24.64
2018-05-04T21:06:06.180Z,24.59
2018-05-04T21:08:32.496Z,24.61
2018-05-04T21:10:58.827Z,24.59
2018-05-04T21:13:25.179Z,24.53
2018-05-04T21:15:51.531Z,24.54
2018-05-04T21:18:17.848Z,24.50
2018-05-04T21:20:44.207Z,24.52
2018-05-04T21:23:10.535Z,24.46
2018-05-04T21:25:36.921Z,24.44
2018-05-04T21:28:03.252Z,24.41
2018-05-04T21:30:29.613Z,24.36
2018-05-04T21:32:55.994Z,24.44
2018-05-04T21:35:22.334Z,24.33
2018-05-04T21:37:48.652Z,24.31
2018-05-04T21:40:14.990Z,24.31
2018-05-04T21:42:41.344Z,24.28
2018-05-04T21:45:07.703Z,24.30
2018-05-04T21:47:34.080Z,24.29
2018-05-04T21:50:00.424Z,24.26
2018-05-04T21:52:26.792Z,24.27
2018-05-04T21:54:53.168Z,24.21
2018-05-04T21:57:19.476Z,24.22
2018-05-04T21:59:45.812Z,24.20
2018-05-04T22:02:12.205Z,24.21
2018-05-04T22:04:38.531Z,24.19
2018-05-04T22:07:04.904Z,24.12
2018-05-04T22:09:31.275Z,24.16
2018-05-04T22:11:57.628Z,24.14
2018-05-04T22:14:23.950Z,24.11
2018-05-04T22:16:50.380Z,24.11
2018-05-04T22:19:16.732Z,24.10
2018-05-04T22:21:43.090Z,24.10
2018-05-04T22:24:09.457Z,24.07
2018-05-04T22:26:35.861Z,24.05
2018-05-04T22:29:02.193Z,24.02
2018-05-04T22:31:28.513Z,24.03
2018-05-04T22:33:54.828Z,24.07
2018-05-04T22:36:21.148Z,24.03
2018-05-04T22:38:47.560Z,24.04
2018-05-04T22:41:13.879Z,23.99
2018-05-04T22:43:40.236Z,24.03
2018-05-04T22:46:06.585Z,24.05
2018-05-04T22:48:32.953Z,24.02
2018-05-04T22:50:59.336Z,23.99
2018-05-04T22:53:25.706Z,23.97
2018-05-04T22:55:52.059Z,23.96
2018-05-04T22:58:18.387Z,23.98
2018-05-04T23:00:44.753Z,24.02
2018-05-04T23:03:11.145Z,23.92
2018-05-04T23:05:37.508Z,23.90
2018-05-04T23:08:03.872Z,23.87
2018-05-04T23:10:30.220Z,23.91
2018-05-04T23:12:56.564Z,23.92
2018-05-04T23:15:22.912Z,23.81
2018-05-04T23:17:49.231Z,23.83
2018-05-04T23:20:15.579Z,23.88
2018-05-04T23:22:41.924Z,23.84
2018-05-04T23:25:08.227Z,23.90
2018-05-04T23:27:34.627Z,23.87
2018-05-04T23:30:00.951Z,23.85
2018-05-04T23:32:27.273Z,23.81
2018-05-04T23:34:53.628Z,23.82
2018-05-04T23:37:20.003Z,23.86
2018-05-04T23:39:46.344Z,23.73
2018-05-04T23:42:12.693Z,23.81
2018-05-04T23:44:39.009Z,23.76
2018-05-04T23:47:05.377Z,23.78
2018-05-04T23:49:31.735Z,23.76
2018-05-04T23:51:58.064Z,23.75
2018-05-04T23:54:24.423Z,23.72
2018-05-04T23:56:50.738Z,23.71
2018-05-04T23:59:17.062Z,23.73
